Terminal Aerodrome Forecast
Issued by NWS

Home | Current Version | Previous Version | Graphics & Text | Print | Product List | Glossary On
Versions: 1 2 3 4 5 6 7 8 9 10 11 12 13 14 15 16 17 18 19 20 21 22 23 24 25
000
FTUS43 KBIS 190500
TAFMOT
TAF
KMOT 190532Z 1906/2006 18003KT 4SM BR OVC008
     FM190800 19004KT 2SM BR OVC006
      TEMPO 1908/1912 1/2SM FG OVC003
     FM191600 20003KT P6SM SCT008 BKN012
     FM191900 VRB03KT P6SM SCT100=

USA.gov is the U.S. government's official web portal to all federal, state and local government web resources and services.